sensor_id;sensor_type;location;lat;lon;timestamp;P1;durP1;ratioP1;P2;durP2;ratioP2
74626;SDS011;63132;52.268;5.192;2022-12-29T00:01:50;7.17;;;4.37;;
74626;SDS011;63132;52.268;5.192;2022-12-29T00:04:17;6.90;;;4.55;;
74626;SDS011;63132;52.268;5.192;2022-12-29T00:06:43;8.23;;;4.20;;
74626;SDS011;63132;52.268;5.192;2022-12-29T00:09:12;6.70;;;4.38;;
74626;SDS011;63132;52.268;5.192;2022-12-29T00:11:38;5.63;;;4.05;;
74626;SDS011;63132;52.268;5.192;2022-12-29T00:14:04;7.53;;;3.70;;
74626;SDS011;63132;52.268;5.192;2022-12-29T00:16:48;6.93;;;3.90;;
74626;SDS011;63132;52.268;5.192;2022-12-29T00:19:13;7.10;;;3.97;;
74626;SDS011;63132;52.268;5.192;2022-12-29T00:21:57;7.50;;;3.95;;
74626;SDS011;63132;52.268;5.192;2022-12-29T00:24:42;7.40;;;4.03;;
74626;SDS011;63132;52.268;5.192;2022-12-29T00:27:26;7.97;;;3.83;;
74626;SDS011;63132;52.268;5.192;2022-12-29T00:30:12;5.72;;;3.50;;
74626;SDS011;63132;52.268;5.192;2022-12-29T00:33:00;5.00;;;3.10;;
74626;SDS011;63132;52.268;5.192;2022-12-29T00:35:46;7.05;;;3.17;;
74626;SDS011;63132;52.268;5.192;2022-12-29T00:38:17;4.30;;;2.95;;
74626;SDS011;63132;52.268;5.192;2022-12-29T00:41:02;5.75;;;2.85;;
74626;SDS011;63132;52.268;5.192;2022-12-29T00:43:46;5.75;;;2.85;;
74626;SDS011;63132;52.268;5.192;2022-12-29T00:46:30;4.97;;;2.60;;
74626;SDS011;63132;52.268;5.192;2022-12-29T00:48:56;4.47;;;2.75;;
74626;SDS011;63132;52.268;5.192;2022-12-29T00:51:40;5.47;;;2.60;;
74626;SDS011;63132;52.268;5.192;2022-12-29T00:54:06;5.73;;;2.90;;
74626;SDS011;63132;52.268;5.192;2022-12-29T00:56:31;4.07;;;2.20;;
74626;SDS011;63132;52.268;5.192;2022-12-29T00:59:03;6.25;;;3.10;;
74626;SDS011;63132;52.268;5.192;2022-12-29T01:01:31;5.80;;;2.53;;
74626;SDS011;63132;52.268;5.192;2022-12-29T01:03:57;4.13;;;2.40;;
74626;SDS011;63132;52.268;5.192;2022-12-29T01:06:22;4.43;;;2.40;;
74626;SDS011;63132;52.268;5.192;2022-12-29T01:08:48;4.28;;;2.20;;
74626;SDS011;63132;52.268;5.192;2022-12-29T01:11:33;5.20;;;2.38;;
74626;SDS011;63132;52.268;5.192;2022-12-29T01:13:59;4.33;;;2.37;;
74626;SDS011;63132;52.268;5.192;2022-12-29T01:16:24;5.03;;;2.50;;
74626;SDS011;63132;52.268;5.192;2022-12-29T01:18:49;6.70;;;2.57;;
74626;SDS011;63132;52.268;5.192;2022-12-29T01:21:15;5.57;;;2.80;;
74626;SDS011;63132;52.268;5.192;2022-12-29T01:23:40;5.77;;;2.87;;
74626;SDS011;63132;52.268;5.192;2022-12-29T01:26:09;5.97;;;2.67;;
74626;SDS011;63132;52.268;5.192;2022-12-29T01:28:35;6.20;;;2.70;;
74626;SDS011;63132;52.268;5.192;2022-12-29T01:31:00;5.70;;;2.73;;
74626;SDS011;63132;52.268;5.192;2022-12-29T01:33:26;5.50;;;2.43;;
74626;SDS011;63132;52.268;5.192;2022-12-29T01:35:51;7.13;;;2.70;;
74626;SDS011;63132;52.268;5.192;2022-12-29T01:38:17;4.45;;;2.47;;
74626;SDS011;63132;52.268;5.192;2022-12-29T01:40:43;5.57;;;2.50;;
74626;SDS011;63132;52.268;5.192;2022-12-29T01:43:10;4.38;;;2.58;;
74626;SDS011;63132;52.268;5.192;2022-12-29T01:45:38;4.07;;;2.83;;
74626;SDS011;63132;52.268;5.192;2022-12-29T01:48:04;5.28;;;2.88;;
74626;SDS011;63132;52.268;5.192;2022-12-29T01:50:35;5.40;;;3.30;;
74626;SDS011;63132;52.268;5.192;2022-12-29T01:53:09;7.45;;;3.08;;
74626;SDS011;63132;52.268;5.192;2022-12-29T01:55:41;5.50;;;3.00;;
74626;SDS011;63132;52.268;5.192;2022-12-29T01:58:09;3.92;;;2.63;;
74626;SDS011;63132;52.268;5.192;2022-12-29T02:00:38;4.25;;;2.70;;
74626;SDS011;63132;52.268;5.192;2022-12-29T02:03:04;5.55;;;3.10;;
74626;SDS011;63132;52.268;5.192;2022-12-29T02:05:38;6.10;;;2.72;;
74626;SDS011;63132;52.268;5.192;2022-12-29T02:08:09;4.90;;;2.38;;
74626;SDS011;63132;52.268;5.192;2022-12-29T02:10:36;3.90;;;2.30;;
74626;SDS011;63132;52.268;5.192;2022-12-29T02:13:02;5.78;;;2.58;;
74626;SDS011;63132;52.268;5.192;2022-12-29T02:15:34;3.40;;;2.27;;
74626;SDS011;63132;52.268;5.192;2022-12-29T02:29:19;4.30;;;2.13;;
74626;SDS011;63132;52.268;5.192;2022-12-29T02:31:59;5.43;;;2.25;;
74626;SDS011;63132;52.268;5.192;2022-12-29T02:43:10;7.07;;;2.00;;
74626;SDS011;63132;52.268;5.192;2022-12-29T02:48:28;6.43;;;1.85;;
74626;SDS011;63132;52.268;5.192;2022-12-29T02:53:30;7.38;;;2.05;;
74626;SDS011;63132;52.268;5.192;2022-12-29T02:56:17;7.40;;;1.80;;
74626;SDS011;63132;52.268;5.192;2022-12-29T02:58:43;5.85;;;1.75;;
74626;SDS011;63132;52.268;5.192;2022-12-29T03:11:59;8.32;;;1.80;;
74626;SDS011;63132;52.268;5.192;2022-12-29T03:15:40;5.60;;;1.45;;
74626;SDS011;63132;52.268;5.192;2022-12-29T03:17:58;9.05;;;1.65;;
74626;SDS011;63132;52.268;5.192;2022-12-29T03:20:32;7.07;;;1.55;;
74626;SDS011;63132;52.268;5.192;2022-12-29T03:23:03;9.07;;;1.60;;
74626;SDS011;63132;52.268;5.192;2022-12-29T03:25:50;8.30;;;2.08;;
74626;SDS011;63132;52.268;5.192;2022-12-29T03:28:23;12.05;;;2.20;;
74626;SDS011;63132;52.268;5.192;2022-12-29T03:30:52;11.27;;;1.92;;
74626;SDS011;63132;52.268;5.192;2022-12-29T03:33:21;13.13;;;2.00;;
74626;SDS011;63132;52.268;5.192;2022-12-29T03:35:50;10.75;;;2.40;;
74626;SDS011;63132;52.268;5.192;2022-12-29T03:39:04;11.52;;;2.20;;
74626;SDS011;63132;52.268;5.192;2022-12-29T03:41:13;12.07;;;2.17;;
74626;SDS011;63132;52.268;5.192;2022-12-29T03:43:43;11.32;;;2.33;;
74626;SDS011;63132;52.268;5.192;2022-12-29T03:46:09;11.45;;;2.20;;
74626;SDS011;63132;52.268;5.192;2022-12-29T03:48:34;9.03;;;1.90;;
74626;SDS011;63132;52.268;5.192;2022-12-29T03:50:59;13.07;;;2.13;;
74626;SDS011;63132;52.268;5.192;2022-12-29T03:53:25;16.52;;;2.38;;
74626;SDS011;63132;52.268;5.192;2022-12-29T03:55:50;10.03;;;2.03;;
74626;SDS011;63132;52.268;5.192;2022-12-29T03:58:15;9.47;;;2.40;;
74626;SDS011;63132;52.268;5.192;2022-12-29T04:00:41;9.00;;;1.70;;
74626;SDS011;63132;52.268;5.192;2022-12-29T04:03:06;9.37;;;1.70;;
74626;SDS011;63132;52.268;5.192;2022-12-29T04:05:32;8.20;;;1.77;;
74626;SDS011;63132;52.268;5.192;2022-12-29T04:07:57;10.63;;;2.20;;
74626;SDS011;63132;52.268;5.192;2022-12-29T04:10:22;10.32;;;2.20;;
74626;SDS011;63132;52.268;5.192;2022-12-29T04:12:48;9.00;;;1.67;;
74626;SDS011;63132;52.268;5.192;2022-12-29T04:15:13;9.97;;;1.77;;
74626;SDS011;63132;52.268;5.192;2022-12-29T04:17:39;8.83;;;1.80;;
74626;SDS011;63132;52.268;5.192;2022-12-29T04:20:04;7.33;;;1.47;;
74626;SDS011;63132;52.268;5.192;2022-12-29T04:22:49;9.70;;;2.13;;
74626;SDS011;63132;52.268;5.192;2022-12-29T04:25:21;8.50;;;1.70;;
74626;SDS011;63132;52.268;5.192;2022-12-29T04:27:47;8.13;;;1.53;;
74626;SDS011;63132;52.268;5.192;2022-12-29T04:30:13;8.73;;;1.80;;
74626;SDS011;63132;52.268;5.192;2022-12-29T04:32:38;5.37;;;1.33;;
74626;SDS011;63132;52.268;5.192;2022-12-29T04:35:03;9.68;;;1.80;;
74626;SDS011;63132;52.268;5.192;2022-12-29T04:37:29;9.02;;;1.63;;
74626;SDS011;63132;52.268;5.192;2022-12-29T04:39:54;8.50;;;1.80;;
74626;SDS011;63132;52.268;5.192;2022-12-29T04:42:20;6.80;;;1.77;;
74626;SDS011;63132;52.268;5.192;2022-12-29T04:44:45;11.20;;;2.15;;
74626;SDS011;63132;52.268;5.192;2022-12-29T04:47:10;8.57;;;1.80;;
74626;SDS011;63132;52.268;5.192;2022-12-29T04:49:36;8.57;;;1.73;;
74626;SDS011;63132;52.268;5.192;2022-12-29T04:52:01;11.10;;;1.92;;
74626;SDS011;63132;52.268;5.192;2022-12-29T04:54:27;13.80;;;2.58;;
74626;SDS011;63132;52.268;5.192;2022-12-29T04:56:52;16.03;;;2.90;;
74626;SDS011;63132;52.268;5.192;2022-12-29T04:59:18;14.57;;;2.47;;
74626;SDS011;63132;52.268;5.192;2022-12-29T05:01:43;13.15;;;2.53;;
74626;SDS011;63132;52.268;5.192;2022-12-29T05:04:08;13.07;;;2.27;;
74626;SDS011;63132;52.268;5.192;2022-12-29T05:06:34;12.97;;;2.70;;
74626;SDS011;63132;52.268;5.192;2022-12-29T05:08:59;12.93;;;2.60;;
74626;SDS011;63132;52.268;5.192;2022-12-29T05:11:24;10.70;;;1.80;;
74626;SDS011;63132;52.268;5.192;2022-12-29T05:13:50;11.93;;;2.33;;
74626;SDS011;63132;52.268;5.192;2022-12-29T05:16:15;14.17;;;2.53;;
74626;SDS011;63132;52.268;5.192;2022-12-29T05:18:41;11.73;;;2.33;;
74626;SDS011;63132;52.268;5.192;2022-12-29T05:21:06;8.63;;;2.40;;
74626;SDS011;63132;52.268;5.192;2022-12-29T05:23:31;14.60;;;2.63;;
74626;SDS011;63132;52.268;5.192;2022-12-29T05:25:57;13.77;;;3.08;;
74626;SDS011;63132;52.268;5.192;2022-12-29T05:28:22;11.87;;;2.37;;
74626;SDS011;63132;52.268;5.192;2022-12-29T05:30:48;13.90;;;2.87;;
74626;SDS011;63132;52.268;5.192;2022-12-29T05:33:15;13.13;;;2.53;;
74626;SDS011;63132;52.268;5.192;2022-12-29T05:35:41;17.88;;;2.92;;
74626;SDS011;63132;52.268;5.192;2022-12-29T05:38:06;15.40;;;2.70;;
74626;SDS011;63132;52.268;5.192;2022-12-29T05:40:32;15.80;;;2.70;;
74626;SDS011;63132;52.268;5.192;2022-12-29T05:42:57;15.10;;;2.53;;
74626;SDS011;63132;52.268;5.192;2022-12-29T05:45:22;12.43;;;2.30;;
74626;SDS011;63132;52.268;5.192;2022-12-29T05:47:48;16.73;;;3.03;;
74626;SDS011;63132;52.268;5.192;2022-12-29T05:50:13;21.53;;;3.63;;
74626;SDS011;63132;52.268;5.192;2022-12-29T05:52:39;17.37;;;2.70;;
74626;SDS011;63132;52.268;5.192;2022-12-29T05:55:04;14.35;;;3.10;;
74626;SDS011;63132;52.268;5.192;2022-12-29T05:57:30;18.42;;;3.30;;
74626;SDS011;63132;52.268;5.192;2022-12-29T05:59:55;14.15;;;3.15;;
74626;SDS011;63132;52.268;5.192;2022-12-29T06:02:21;18.23;;;3.07;;
74626;SDS011;63132;52.268;5.192;2022-12-29T06:04:46;15.37;;;2.53;;
74626;SDS011;63132;52.268;5.192;2022-12-29T06:07:12;19.10;;;3.20;;
74626;SDS011;63132;52.268;5.192;2022-12-29T06:09:37;16.63;;;2.80;;
74626;SDS011;63132;52.268;5.192;2022-12-29T06:12:03;16.77;;;2.90;;
74626;SDS011;63132;52.268;5.192;2022-12-29T06:14:28;13.87;;;3.10;;
74626;SDS011;63132;52.268;5.192;2022-12-29T06:16:54;15.37;;;3.03;;
74626;SDS011;63132;52.268;5.192;2022-12-29T06:19:19;16.27;;;3.13;;
74626;SDS011;63132;52.268;5.192;2022-12-29T06:21:44;19.60;;;3.13;;
74626;SDS011;63132;52.268;5.192;2022-12-29T06:24:10;15.80;;;2.87;;
74626;SDS011;63132;52.268;5.192;2022-12-29T06:26:36;16.73;;;3.00;;
74626;SDS011;63132;52.268;5.192;2022-12-29T06:29:03;16.80;;;2.80;;
74626;SDS011;63132;52.268;5.192;2022-12-29T06:31:29;17.87;;;3.40;;
74626;SDS011;63132;52.268;5.192;2022-12-29T06:33:55;17.67;;;3.55;;
74626;SDS011;63132;52.268;5.192;2022-12-29T06:36:20;24.63;;;3.77;;
74626;SDS011;63132;52.268;5.192;2022-12-29T06:38:46;16.63;;;3.07;;
74626;SDS011;63132;52.268;5.192;2022-12-29T06:41:11;16.83;;;3.08;;
74626;SDS011;63132;52.268;5.192;2022-12-29T06:43:36;18.90;;;3.53;;
74626;SDS011;63132;52.268;5.192;2022-12-29T06:46:03;18.50;;;3.78;;
74626;SDS011;63132;52.268;5.192;2022-12-29T06:48:29;18.17;;;3.03;;
74626;SDS011;63132;52.268;5.192;2022-12-29T06:50:55;16.00;;;3.07;;
74626;SDS011;63132;52.268;5.192;2022-12-29T06:53:20;21.27;;;3.37;;
74626;SDS011;63132;52.268;5.192;2022-12-29T06:55:46;22.23;;;3.20;;
74626;SDS011;63132;52.268;5.192;2022-12-29T06:58:11;14.40;;;3.07;;
74626;SDS011;63132;52.268;5.192;2022-12-29T07:00:37;22.90;;;3.53;;
74626;SDS011;63132;52.268;5.192;2022-12-29T07:03:02;19.17;;;3.27;;
74626;SDS011;63132;52.268;5.192;2022-12-29T07:05:27;21.40;;;3.90;;
74626;SDS011;63132;52.268;5.192;2022-12-29T07:07:53;17.93;;;3.73;;
74626;SDS011;63132;52.268;5.192;2022-12-29T07:10:19;19.70;;;3.33;;
74626;SDS011;63132;52.268;5.192;2022-12-29T07:12:45;17.07;;;3.17;;
74626;SDS011;63132;52.268;5.192;2022-12-29T07:15:10;15.67;;;3.37;;
74626;SDS011;63132;52.268;5.192;2022-12-29T07:17:35;23.65;;;3.65;;
74626;SDS011;63132;52.268;5.192;2022-12-29T07:20:01;18.73;;;3.30;;
74626;SDS011;63132;52.268;5.192;2022-12-29T07:22:26;27.50;;;4.30;;
74626;SDS011;63132;52.268;5.192;2022-12-29T07:24:51;19.20;;;3.80;;
74626;SDS011;63132;52.268;5.192;2022-12-29T07:27:17;18.98;;;3.63;;
74626;SDS011;63132;52.268;5.192;2022-12-29T07:29:43;16.10;;;3.38;;
74626;SDS011;63132;52.268;5.192;2022-12-29T07:32:08;18.83;;;3.63;;
74626;SDS011;63132;52.268;5.192;2022-12-29T07:34:33;13.87;;;3.00;;
74626;SDS011;63132;52.268;5.192;2022-12-29T07:36:59;18.83;;;3.78;;
74626;SDS011;63132;52.268;5.192;2022-12-29T07:39:24;16.40;;;2.90;;
74626;SDS011;63132;52.268;5.192;2022-12-29T07:41:50;16.20;;;3.30;;
74626;SDS011;63132;52.268;5.192;2022-12-29T07:44:15;13.47;;;3.00;;
74626;SDS011;63132;52.268;5.192;2022-12-29T07:46:40;15.93;;;2.73;;
74626;SDS011;63132;52.268;5.192;2022-12-29T07:49:06;15.60;;;3.20;;
74626;SDS011;63132;52.268;5.192;2022-12-29T07:51:31;13.13;;;2.80;;
74626;SDS011;63132;52.268;5.192;2022-12-29T07:53:57;12.17;;;2.37;;
74626;SDS011;63132;52.268;5.192;2022-12-29T07:56:25;14.05;;;2.83;;
74626;SDS011;63132;52.268;5.192;2022-12-29T07:58:50;13.33;;;2.60;;
74626;SDS011;63132;52.268;5.192;2022-12-29T08:01:15;15.60;;;3.13;;
74626;SDS011;63132;52.268;5.192;2022-12-29T08:03:41;13.40;;;2.60;;
74626;SDS011;63132;52.268;5.192;2022-12-29T08:06:08;21.17;;;2.83;;
74626;SDS011;63132;52.268;5.192;2022-12-29T08:08:34;17.47;;;3.03;;
74626;SDS011;63132;52.268;5.192;2022-12-29T08:11:00;17.40;;;3.23;;
74626;SDS011;63132;52.268;5.192;2022-12-29T08:13:25;16.73;;;3.10;;
74626;SDS011;63132;52.268;5.192;2022-12-29T08:15:50;19.33;;;3.20;;
74626;SDS011;63132;52.268;5.192;2022-12-29T08:18:16;15.10;;;2.90;;
74626;SDS011;63132;52.268;5.192;2022-12-29T08:20:41;18.48;;;3.45;;
74626;SDS011;63132;52.268;5.192;2022-12-29T08:23:06;18.43;;;3.60;;
74626;SDS011;63132;52.268;5.192;2022-12-29T08:25:32;18.57;;;3.43;;
74626;SDS011;63132;52.268;5.192;2022-12-29T08:27:57;19.27;;;3.72;;
74626;SDS011;63132;52.268;5.192;2022-12-29T08:30:23;18.27;;;3.00;;
74626;SDS011;63132;52.268;5.192;2022-12-29T08:32:48;20.43;;;3.80;;
74626;SDS011;63132;52.268;5.192;2022-12-29T08:35:13;24.87;;;3.67;;
74626;SDS011;63132;52.268;5.192;2022-12-29T08:37:39;21.85;;;3.95;;
74626;SDS011;63132;52.268;5.192;2022-12-29T08:40:04;19.40;;;3.40;;
74626;SDS011;63132;52.268;5.192;2022-12-29T08:42:31;20.27;;;3.88;;
74626;SDS011;63132;52.268;5.192;2022-12-29T08:44:57;20.42;;;3.67;;
74626;SDS011;63132;52.268;5.192;2022-12-29T08:47:23;24.42;;;3.88;;
74626;SDS011;63132;52.268;5.192;2022-12-29T08:49:49;18.92;;;3.22;;
74626;SDS011;63132;52.268;5.192;2022-12-29T08:52:14;17.53;;;3.33;;
74626;SDS011;63132;52.268;5.192;2022-12-29T08:54:40;17.95;;;3.70;;
74626;SDS011;63132;52.268;5.192;2022-12-29T08:57:05;19.43;;;3.67;;
74626;SDS011;63132;52.268;5.192;2022-12-29T08:59:31;17.87;;;3.63;;
74626;SDS011;63132;52.268;5.192;2022-12-29T09:01:56;17.07;;;3.37;;
74626;SDS011;63132;52.268;5.192;2022-12-29T09:04:22;19.92;;;4.07;;
74626;SDS011;63132;52.268;5.192;2022-12-29T09:06:48;20.35;;;3.00;;
74626;SDS011;63132;52.268;5.192;2022-12-29T09:09:14;20.80;;;3.83;;
74626;SDS011;63132;52.268;5.192;2022-12-29T09:11:40;18.88;;;3.33;;
74626;SDS011;63132;52.268;5.192;2022-12-29T09:14:06;18.75;;;3.83;;
74626;SDS011;63132;52.268;5.192;2022-12-29T09:16:32;21.95;;;3.40;;
74626;SDS011;63132;52.268;5.192;2022-12-29T09:18:58;21.00;;;3.47;;
74626;SDS011;63132;52.268;5.192;2022-12-29T09:21:24;24.80;;;4.90;;
74626;SDS011;63132;52.268;5.192;2022-12-29T09:23:50;22.80;;;3.75;;
74626;SDS011;63132;52.268;5.192;2022-12-29T09:26:16;21.23;;;4.10;;
74626;SDS011;63132;52.268;5.192;2022-12-29T09:28:42;22.13;;;3.70;;
74626;SDS011;63132;52.268;5.192;2022-12-29T09:31:09;21.48;;;3.63;;
74626;SDS011;63132;52.268;5.192;2022-12-29T09:33:34;20.43;;;4.00;;
74626;SDS011;63132;52.268;5.192;2022-12-29T09:36:00;19.47;;;3.70;;
74626;SDS011;63132;52.268;5.192;2022-12-29T09:38:26;19.30;;;3.50;;
74626;SDS011;63132;52.268;5.192;2022-12-29T09:40:53;20.98;;;3.55;;
74626;SDS011;63132;52.268;5.192;2022-12-29T09:43:27;20.50;;;3.53;;
74626;SDS011;63132;52.268;5.192;2022-12-29T09:46:29;21.40;;;4.03;;
74626;SDS011;63132;52.268;5.192;2022-12-29T09:51:54;22.92;;;4.05;;
74626;SDS011;63132;52.268;5.192;2022-12-29T09:54:38;14.90;;;3.43;;
74626;SDS011;63132;52.268;5.192;2022-12-29T09:57:15;18.00;;;3.53;;
74626;SDS011;63132;52.268;5.192;2022-12-29T09:59:45;17.52;;;3.55;;
74626;SDS011;63132;52.268;5.192;2022-12-29T10:04:47;23.40;;;4.03;;
74626;SDS011;63132;52.268;5.192;2022-12-29T10:07:19;21.53;;;3.53;;
74626;SDS011;63132;52.268;5.192;2022-12-29T10:12:59;20.65;;;4.03;;
74626;SDS011;63132;52.268;5.192;2022-12-29T10:15:48;19.38;;;3.80;;
74626;SDS011;63132;52.268;5.192;2022-12-29T10:21:08;17.73;;;3.77;;
74626;SDS011;63132;52.268;5.192;2022-12-29T10:23:40;22.05;;;4.13;;
74626;SDS011;63132;52.268;5.192;2022-12-29T10:26:14;17.88;;;4.03;;
74626;SDS011;63132;52.268;5.192;2022-12-29T10:28:43;20.52;;;3.97;;
74626;SDS011;63132;52.268;5.192;2022-12-29T10:31:16;19.98;;;4.03;;
74626;SDS011;63132;52.268;5.192;2022-12-29T10:33:45;19.77;;;4.20;;
74626;SDS011;63132;52.268;5.192;2022-12-29T10:36:17;21.60;;;4.78;;
74626;SDS011;63132;52.268;5.192;2022-12-29T10:39:02;24.23;;;5.05;;
74626;SDS011;63132;52.268;5.192;2022-12-29T10:41:36;23.33;;;4.47;;
74626;SDS011;63132;52.268;5.192;2022-12-29T10:44:07;23.92;;;4.68;;
74626;SDS011;63132;52.268;5.192;2022-12-29T10:46:38;23.27;;;4.72;;
74626;SDS011;63132;52.268;5.192;2022-12-29T10:49:04;22.73;;;4.80;;
74626;SDS011;63132;52.268;5.192;2022-12-29T10:51:38;24.73;;;4.77;;
74626;SDS011;63132;52.268;5.192;2022-12-29T10:54:11;24.27;;;4.80;;
74626;SDS011;63132;52.268;5.192;2022-12-29T10:56:44;31.35;;;5.90;;
74626;SDS011;63132;52.268;5.192;2022-12-29T10:59:24;27.88;;;5.47;;
74626;SDS011;63132;52.268;5.192;2022-12-29T11:04:56;30.42;;;5.18;;
74626;SDS011;63132;52.268;5.192;2022-12-29T11:07:36;29.05;;;6.10;;
74626;SDS011;63132;52.268;5.192;2022-12-29T11:12:54;30.87;;;5.53;;
74626;SDS011;63132;52.268;5.192;2022-12-29T11:15:24;27.67;;;4.93;;
74626;SDS011;63132;52.268;5.192;2022-12-29T11:17:56;29.48;;;5.50;;
74626;SDS011;63132;52.268;5.192;2022-12-29T11:20:35;30.67;;;5.68;;
74626;SDS011;63132;52.268;5.192;2022-12-29T11:23:24;24.23;;;5.30;;
74626;SDS011;63132;52.268;5.192;2022-12-29T11:28:47;27.80;;;5.30;;
74626;SDS011;63132;52.268;5.192;2022-12-29T11:31:29;36.05;;;6.13;;
74626;SDS011;63132;52.268;5.192;2022-12-29T11:33:54;24.88;;;5.50;;
74626;SDS011;63132;52.268;5.192;2022-12-29T11:36:20;27.17;;;5.20;;
74626;SDS011;63132;52.268;5.192;2022-12-29T11:38:49;29.35;;;6.05;;
74626;SDS011;63132;52.268;5.192;2022-12-29T11:43:50;33.55;;;5.78;;
74626;SDS011;63132;52.268;5.192;2022-12-29T11:46:23;23.67;;;5.00;;
74626;SDS011;63132;52.268;5.192;2022-12-29T11:48:51;24.48;;;4.95;;
74626;SDS011;63132;52.268;5.192;2022-12-29T11:51:21;25.85;;;5.25;;
74626;SDS011;63132;52.268;5.192;2022-12-29T11:53:53;25.30;;;4.80;;
74626;SDS011;63132;52.268;5.192;2022-12-29T11:56:43;25.93;;;4.67;;
74626;SDS011;63132;52.268;5.192;2022-12-29T11:59:25;28.20;;;5.03;;
74626;SDS011;63132;52.268;5.192;2022-12-29T12:02:19;25.38;;;5.30;;
74626;SDS011;63132;52.268;5.192;2022-12-29T12:05:21;26.95;;;4.80;;
74626;SDS011;63132;52.268;5.192;2022-12-29T12:07:54;28.77;;;5.03;;
74626;SDS011;63132;52.268;5.192;2022-12-29T12:10:57;21.83;;;4.05;;
74626;SDS011;63132;52.268;5.192;2022-12-29T12:13:25;22.90;;;4.35;;
74626;SDS011;63132;52.268;5.192;2022-12-29T12:16:14;23.38;;;4.30;;
74626;SDS011;63132;52.268;5.192;2022-12-29T12:18:50;22.45;;;4.15;;
74626;SDS011;63132;52.268;5.192;2022-12-29T12:21:33;19.70;;;3.70;;
74626;SDS011;63132;52.268;5.192;2022-12-29T12:24:11;22.90;;;4.10;;
74626;SDS011;63132;52.268;5.192;2022-12-29T12:27:09;26.08;;;4.45;;
74626;SDS011;63132;52.268;5.192;2022-12-29T12:32:14;30.45;;;5.32;;
74626;SDS011;63132;52.268;5.192;2022-12-29T12:34:45;28.58;;;4.40;;
74626;SDS011;63132;52.268;5.192;2022-12-29T12:37:32;19.65;;;4.05;;
74626;SDS011;63132;52.268;5.192;2022-12-29T12:54:11;12.63;;;2.78;;
74626;SDS011;63132;52.268;5.192;2022-12-29T13:05:03;24.20;;;3.47;;
74626;SDS011;63132;52.268;5.192;2022-12-29T13:07:43;18.05;;;3.33;;
74626;SDS011;63132;52.268;5.192;2022-12-29T13:10:19;21.67;;;3.92;;
74626;SDS011;63132;52.268;5.192;2022-12-29T13:15:49;24.20;;;4.32;;
74626;SDS011;63132;52.268;5.192;2022-12-29T13:23:57;22.25;;;3.90;;
74626;SDS011;63132;52.268;5.192;2022-12-29T13:26:32;24.17;;;4.10;;
74626;SDS011;63132;52.268;5.192;2022-12-29T13:34:59;15.93;;;3.08;;
74626;SDS011;63132;52.268;5.192;2022-12-29T13:37:34;17.13;;;3.33;;
74626;SDS011;63132;52.268;5.192;2022-12-29T13:40:14;16.63;;;3.22;;
74626;SDS011;63132;52.268;5.192;2022-12-29T13:42:43;14.43;;;3.60;;
74626;SDS011;63132;52.268;5.192;2022-12-29T13:45:18;13.48;;;2.92;;
74626;SDS011;63132;52.268;5.192;2022-12-29T13:47:48;17.52;;;2.85;;
74626;SDS011;63132;52.268;5.192;2022-12-29T13:50:20;15.27;;;3.25;;
74626;SDS011;63132;52.268;5.192;2022-12-29T13:58:28;19.80;;;3.58;;
74626;SDS011;63132;52.268;5.192;2022-12-29T14:03:52;17.37;;;3.87;;
74626;SDS011;63132;52.268;5.192;2022-12-29T14:08:48;23.63;;;3.65;;
74626;SDS011;63132;52.268;5.192;2022-12-29T14:11:32;24.50;;;3.83;;
74626;SDS011;63132;52.268;5.192;2022-12-29T14:13:59;19.73;;;3.90;;
74626;SDS011;63132;52.268;5.192;2022-12-29T14:16:44;22.58;;;3.72;;
74626;SDS011;63132;52.268;5.192;2022-12-29T14:19:15;21.42;;;3.95;;
74626;SDS011;63132;52.268;5.192;2022-12-29T14:21:51;22.50;;;4.22;;
74626;SDS011;63132;52.268;5.192;2022-12-29T14:24:37;19.88;;;4.25;;
74626;SDS011;63132;52.268;5.192;2022-12-29T14:34:55;12.57;;;3.38;;
74626;SDS011;63132;52.268;5.192;2022-12-29T14:37:23;14.57;;;3.57;;
74626;SDS011;63132;52.268;5.192;2022-12-29T14:42:47;12.70;;;2.95;;
74626;SDS011;63132;52.268;5.192;2022-12-29T14:47:57;10.17;;;2.00;;
74626;SDS011;63132;52.268;5.192;2022-12-29T14:50:24;12.97;;;2.30;;
74626;SDS011;63132;52.268;5.192;2022-12-29T14:53:12;11.57;;;1.98;;
74626;SDS011;63132;52.268;5.192;2022-12-29T14:56:09;9.07;;;2.00;;
74626;SDS011;63132;52.268;5.192;2022-12-29T15:03:51;9.68;;;1.65;;
74626;SDS011;63132;52.268;5.192;2022-12-29T15:06:28;11.25;;;2.35;;
74626;SDS011;63132;52.268;5.192;2022-12-29T15:09:19;9.30;;;1.73;;
74626;SDS011;63132;52.268;5.192;2022-12-29T15:12:25;11.43;;;2.20;;
74626;SDS011;63132;52.268;5.192;2022-12-29T15:15:01;10.57;;;2.33;;
74626;SDS011;63132;52.268;5.192;2022-12-29T15:17:31;13.10;;;2.83;;
74626;SDS011;63132;52.268;5.192;2022-12-29T15:19:58;11.52;;;2.40;;
74626;SDS011;63132;52.268;5.192;2022-12-29T15:22:26;12.65;;;2.90;;
74626;SDS011;63132;52.268;5.192;2022-12-29T15:24:53;12.23;;;3.10;;
74626;SDS011;63132;52.268;5.192;2022-12-29T15:27:21;14.10;;;3.42;;
74626;SDS011;63132;52.268;5.192;2022-12-29T15:29:55;12.30;;;3.53;;
74626;SDS011;63132;52.268;5.192;2022-12-29T15:32:27;18.73;;;3.30;;
74626;SDS011;63132;52.268;5.192;2022-12-29T15:34:54;20.55;;;3.83;;
74626;SDS011;63132;52.268;5.192;2022-12-29T15:37:24;13.23;;;3.42;;
74626;SDS011;63132;52.268;5.192;2022-12-29T15:39:57;15.30;;;3.38;;
74626;SDS011;63132;52.268;5.192;2022-12-29T15:45:13;14.93;;;3.38;;
74626;SDS011;63132;52.268;5.192;2022-12-29T15:47:40;17.57;;;3.60;;
74626;SDS011;63132;52.268;5.192;2022-12-29T15:50:12;15.85;;;3.08;;
74626;SDS011;63132;52.268;5.192;2022-12-29T15:52:45;17.80;;;3.53;;
74626;SDS011;63132;52.268;5.192;2022-12-29T15:57:58;15.60;;;3.25;;
74626;SDS011;63132;52.268;5.192;2022-12-29T16:00:35;16.52;;;3.38;;
74626;SDS011;63132;52.268;5.192;2022-12-29T16:03:04;16.03;;;3.80;;
74626;SDS011;63132;52.268;5.192;2022-12-29T16:05:37;14.02;;;3.85;;
74626;SDS011;63132;52.268;5.192;2022-12-29T16:08:15;15.32;;;3.60;;
74626;SDS011;63132;52.268;5.192;2022-12-29T16:10:49;15.88;;;3.75;;
74626;SDS011;63132;52.268;5.192;2022-12-29T16:15:59;17.83;;;3.42;;
74626;SDS011;63132;52.268;5.192;2022-12-29T16:18:29;17.10;;;4.00;;
74626;SDS011;63132;52.268;5.192;2022-12-29T16:20:59;18.73;;;3.57;;
74626;SDS011;63132;52.268;5.192;2022-12-29T16:23:26;21.02;;;3.58;;
74626;SDS011;63132;52.268;5.192;2022-12-29T16:25:54;18.50;;;3.30;;
74626;SDS011;63132;52.268;5.192;2022-12-29T16:28:35;21.30;;;3.60;;
74626;SDS011;63132;52.268;5.192;2022-12-29T16:31:04;20.85;;;3.72;;
74626;SDS011;63132;52.268;5.192;2022-12-29T16:38:50;15.73;;;3.53;;
74626;SDS011;63132;52.268;5.192;2022-12-29T16:41:28;28.70;;;6.83;;
74626;SDS011;63132;52.268;5.192;2022-12-29T16:46:43;15.43;;;3.53;;
74626;SDS011;63132;52.268;5.192;2022-12-29T16:49:22;14.98;;;3.80;;
74626;SDS011;63132;52.268;5.192;2022-12-29T16:51:48;14.38;;;3.08;;
74626;SDS011;63132;52.268;5.192;2022-12-29T16:54:19;14.50;;;3.00;;
74626;SDS011;63132;52.268;5.192;2022-12-29T16:56:48;15.85;;;3.33;;
74626;SDS011;63132;52.268;5.192;2022-12-29T17:01:51;15.05;;;3.10;;
74626;SDS011;63132;52.268;5.192;2022-12-29T17:04:16;14.38;;;2.97;;
74626;SDS011;63132;52.268;5.192;2022-12-29T17:06:41;14.87;;;2.93;;
74626;SDS011;63132;52.268;5.192;2022-12-29T17:09:40;18.43;;;3.50;;
74626;SDS011;63132;52.268;5.192;2022-12-29T17:11:59;17.10;;;2.92;;
74626;SDS011;63132;52.268;5.192;2022-12-29T17:17:18;19.00;;;2.97;;
74626;SDS011;63132;52.268;5.192;2022-12-29T17:19:47;15.40;;;3.00;;
74626;SDS011;63132;52.268;5.192;2022-12-29T17:22:16;16.13;;;3.08;;
74626;SDS011;63132;52.268;5.192;2022-12-29T17:24:44;17.05;;;3.20;;
74626;SDS011;63132;52.268;5.192;2022-12-29T17:27:12;17.93;;;2.77;;